Buckhurst Hill, United Kingdom
Current Conditions -  °F | °C
As of 11:50 PM on Friday 28 Nov 2014 (Local Time) from EGLC Reporting Station
Clear Clear  
Wind Chill: 54°   Ceiling: Unl
Heat Index: 54°   Visibility: 6mi
Dew Point: 48°   Wind: 9mph
Humidity: 82%   Direction: 70°ENE
Pressure: 29.74"   Gusts: NA
Location:  51.62°N, 0.05°E
Report Text: EGLC 282350Z AUTO 07008KT 9000 NCD 12/09 Q1007
Loading
Personal Weather Stations






























Interactive Weather Map New forecast layout! Learn more

10-Day Weather Forecast

Advertisements
Track Severe Weather on mobile